createdAt,value
2023-03-17T00:01:43.859Z,5.72
2023-03-17T00:04:13.094Z,5.86
2023-03-17T00:06:40.668Z,5.76
2023-03-17T00:09:14.207Z,5.75
2023-03-17T00:11:40.900Z,5.81
2023-03-17T00:14:07.260Z,5.75
2023-03-17T00:16:39.087Z,5.76
2023-03-17T00:19:05.500Z,5.73
2023-03-17T00:21:33.484Z,5.69
2023-03-17T00:24:00.595Z,5.74
2023-03-17T00:26:27.782Z,5.76
2023-03-17T00:28:54.366Z,5.82
2023-03-17T00:31:23.104Z,5.79
2023-03-17T00:33:51.547Z,5.82
2023-03-17T00:36:20.709Z,5.76
2023-03-17T00:38:46.739Z,5.84
2023-03-17T00:41:13.053Z,5.76
2023-03-17T00:43:39.642Z,5.75
2023-03-17T00:46:18.951Z,5.70
2023-03-17T00:48:45.253Z,5.67
2023-03-17T00:51:11.985Z,5.69
2023-03-17T00:53:38.000Z,5.72
2023-03-17T00:56:10.576Z,5.64
2023-03-17T00:58:38.691Z,5.61
2023-03-17T01:01:04.520Z,5.59
2023-03-17T01:03:32.308Z,5.65
2023-03-17T01:05:59.771Z,5.63
2023-03-17T01:08:26.301Z,5.63
2023-03-17T01:10:52.308Z,5.63
2023-03-17T01:13:18.174Z,5.74
2023-03-17T01:15:46.111Z,5.66
2023-03-17T01:18:20.636Z,5.75
2023-03-17T01:20:47.014Z,5.67
2023-03-17T01:23:13.142Z,5.64
2023-03-17T01:25:40.714Z,5.48
2023-03-17T01:28:07.156Z,5.43
2023-03-17T01:30:38.540Z,5.38
2023-03-17T01:33:07.740Z,5.40
2023-03-17T01:35:34.626Z,5.52
2023-03-17T01:38:00.745Z,5.50
2023-03-17T01:40:31.396Z,5.52
2023-03-17T01:43:26.790Z,5.58
2023-03-17T01:46:25.462Z,5.53
2023-03-17T01:49:19.345Z,5.47
2023-03-17T01:52:10.978Z,5.49
2023-03-17T01:54:54.979Z,5.62
2023-03-17T01:57:27.811Z,5.67
2023-03-17T02:00:07.336Z,5.70
2023-03-17T02:02:37.019Z,5.71
2023-03-17T02:05:06.606Z,5.67
2023-03-17T02:07:33.268Z,5.74
2023-03-17T02:09:59.552Z,5.62
2023-03-17T02:12:28.211Z,5.60
2023-03-17T02:14:54.158Z,5.57
2023-03-17T02:17:22.279Z,5.56
2023-03-17T02:19:48.698Z,5.64
2023-03-17T02:22:16.490Z,5.54
2023-03-17T02:24:50.520Z,5.49
2023-03-17T02:27:25.558Z,5.56
2023-03-17T02:29:51.388Z,5.55
2023-03-17T02:32:19.006Z,5.55
2023-03-17T02:34:47.979Z,5.59
2023-03-17T02:37:15.328Z,5.57
2023-03-17T02:39:41.920Z,5.46
2023-03-17T02:42:08.372Z,5.60
2023-03-17T02:44:34.521Z,5.57
2023-03-17T02:47:00.586Z,5.51
2023-03-17T02:49:27.065Z,5.57
2023-03-17T02:51:53.333Z,5.49
2023-03-17T02:54:19.248Z,5.44
2023-03-17T02:56:45.089Z,5.40
2023-03-17T02:59:11.051Z,5.42
2023-03-17T03:01:38.725Z,5.52
2023-03-17T03:04:06.266Z,5.49
2023-03-17T03:06:32.604Z,5.52
2023-03-17T03:08:58.677Z,5.46
2023-03-17T03:11:24.787Z,5.49
2023-03-17T03:13:51.160Z,5.45
2023-03-17T03:16:17.152Z,5.49
2023-03-17T03:18:43.415Z,5.51
2023-03-17T03:21:09.856Z,5.50
2023-03-17T03:23:35.824Z,5.59
2023-03-17T03:26:01.656Z,5.70
2023-03-17T03:28:27.711Z,5.62
2023-03-17T03:30:53.639Z,5.71
2023-03-17T03:33:19.486Z,5.66
2023-03-17T03:35:45.253Z,5.57
2023-03-17T03:38:12.397Z,5.71
2023-03-17T03:40:38.497Z,5.75
2023-03-17T03:43:19.855Z,5.68
2023-03-17T03:45:48.538Z,5.65
2023-03-17T03:48:14.341Z,5.51
2023-03-17T03:50:40.232Z,5.56
2023-03-17T03:53:06.529Z,5.52
2023-03-17T03:55:32.424Z,5.48
2023-03-17T03:57:58.223Z,5.59
2023-03-17T04:00:24.208Z,5.73
2023-03-17T04:02:50.485Z,5.68
2023-03-17T04:05:17.824Z,5.63
2023-03-17T04:07:44.359Z,5.69
2023-03-17T04:10:11.653Z,5.92
2023-03-17T04:12:39.568Z,5.88
2023-03-17T04:15:08.322Z,5.80
2023-03-17T04:17:35.152Z,5.87
2023-03-17T04:20:00.994Z,5.88
2023-03-17T04:22:27.021Z,5.92
2023-03-17T04:24:52.800Z,5.86
2023-03-17T04:27:18.635Z,5.77
2023-03-17T04:29:44.552Z,5.79
2023-03-17T04:32:14.204Z,5.79
2023-03-17T04:34:40.762Z,5.81
2023-03-17T04:37:07.927Z,5.80
2023-03-17T04:39:33.668Z,5.76
2023-03-17T04:41:59.505Z,5.72
2023-03-17T04:44:25.479Z,5.70
2023-03-17T04:46:51.874Z,5.65
2023-03-17T04:49:19.903Z,5.64
2023-03-17T04:51:45.699Z,5.81
2023-03-17T04:54:11.720Z,5.79
2023-03-17T04:56:37.806Z,5.70
2023-03-17T04:59:03.803Z,5.58
2023-03-17T05:01:29.668Z,5.54
2023-03-17T05:03:55.519Z,5.63
2023-03-17T05:06:21.394Z,5.52
2023-03-17T05:08:47.205Z,5.61
2023-03-17T05:11:13.971Z,5.65
2023-03-17T05:13:43.179Z,5.67
2023-03-17T05:16:10.279Z,5.60
2023-03-17T05:18:37.131Z,5.48
2023-03-17T05:21:04.251Z,5.62
2023-03-17T05:23:30.254Z,5.56
2023-03-17T05:25:56.110Z,5.48
2023-03-17T05:28:22.604Z,5.53
2023-03-17T05:30:49.361Z,5.61
2023-03-17T05:33:15.916Z,5.49
2023-03-17T05:35:42.428Z,5.39
2023-03-17T05:38:11.085Z,5.36
2023-03-17T05:40:37.356Z,5.32
2023-03-17T05:43:05.019Z,5.22
2023-03-17T05:45:32.559Z,5.29
2023-03-17T05:47:58.725Z,5.32
2023-03-17T05:50:25.296Z,5.24
2023-03-17T05:52:51.625Z,5.34
2023-03-17T05:55:18.537Z,5.39
2023-03-17T05:57:44.739Z,5.28
2023-03-17T06:00:12.779Z,5.37
2023-03-17T06:02:39.654Z,5.40
2023-03-17T06:05:07.760Z,5.40
2023-03-17T06:07:50.942Z,5.37
2023-03-17T06:10:19.298Z,5.52
2023-03-17T06:12:45.401Z,5.51
2023-03-17T06:15:11.231Z,5.56
2023-03-17T06:17:37.064Z,5.52
2023-03-17T06:20:04.722Z,5.59
2023-03-17T06:22:31.002Z,5.64
2023-03-17T06:24:57.048Z,5.70
2023-03-17T06:27:22.883Z,5.69
2023-03-17T06:29:48.616Z,5.67
2023-03-17T06:32:20.603Z,5.73
2023-03-17T06:34:50.455Z,5.90
2023-03-17T06:37:16.305Z,5.82
2023-03-17T06:39:42.807Z,5.84
2023-03-17T06:42:09.090Z,5.84
2023-03-17T06:44:35.657Z,5.78
2023-03-17T06:47:01.850Z,5.86
2023-03-17T06:49:27.890Z,5.94
2023-03-17T06:51:53.717Z,6.10
2023-03-17T06:54:23.156Z,6.06
2023-03-17T06:56:48.964Z,6.16
2023-03-17T06:59:14.979Z,6.16
2023-03-17T07:01:40.798Z,6.22
2023-03-17T07:04:06.670Z,6.34
2023-03-17T07:06:32.988Z,6.43
2023-03-17T07:09:00.354Z,6.58
2023-03-17T07:11:28.579Z,6.60
2023-03-17T07:13:54.424Z,6.56
2023-03-17T07:16:20.544Z,6.52
2023-03-17T07:18:46.649Z,6.60
2023-03-17T07:21:12.462Z,6.62
2023-03-17T07:23:39.646Z,6.68
2023-03-17T07:26:05.485Z,6.70
2023-03-17T07:28:31.559Z,6.70
2023-03-17T07:30:57.418Z,6.76
2023-03-17T07:33:24.102Z,6.94
2023-03-17T07:35:51.395Z,6.78
2023-03-17T07:38:18.346Z,6.85
2023-03-17T07:40:47.140Z,6.89
2023-03-17T07:43:13.723Z,7.13
2023-03-17T07:45:39.583Z,7.02
2023-03-17T07:48:06.360Z,7.14
2023-03-17T07:50:36.288Z,7.25
2023-03-17T07:53:03.232Z,7.34
2023-03-17T07:55:30.245Z,7.37
2023-03-17T07:57:56.746Z,7.38
2023-03-17T08:00:23.006Z,7.44
2023-03-17T08:03:06.978Z,7.50
2023-03-17T08:05:35.075Z,7.55
2023-03-17T08:08:00.942Z,7.73
2023-03-17T08:10:26.781Z,7.79
2023-03-17T08:12:53.219Z,7.81
2023-03-17T08:15:19.052Z,7.93
2023-03-17T08:17:44.930Z,7.98
2023-03-17T08:20:11.312Z,7.98
2023-03-17T08:22:37.123Z,8.09
2023-03-17T08:25:03.124Z,8.06
2023-03-17T08:27:28.958Z,8.17
2023-03-17T08:29:55.067Z,8.19
2023-03-17T08:32:21.908Z,8.27
2023-03-17T08:34:48.551Z,8.28
2023-03-17T08:37:14.329Z,8.20
2023-03-17T08:39:40.587Z,8.39
2023-03-17T08:42:06.502Z,8.42
2023-03-17T08:44:32.937Z,8.48
2023-03-17T08:46:58.918Z,8.44
2023-03-17T08:49:26.480Z,8.65
2023-03-17T08:51:52.571Z,8.73
2023-03-17T08:54:18.384Z,8.78
2023-03-17T08:56:44.193Z,8.87
2023-03-17T08:59:10.055Z,9.03
2023-03-17T09:01:36.889Z,9.06
2023-03-17T09:04:02.796Z,9.20
2023-03-17T09:06:28.653Z,9.26
2023-03-17T09:08:54.651Z,9.42
2023-03-17T09:11:24.017Z,9.53
2023-03-17T09:13:50.003Z,9.55
2023-03-17T09:16:17.300Z,9.43
2023-03-17T09:18:44.327Z,9.68
2023-03-17T09:21:12.088Z,9.74
2023-03-17T09:23:41.102Z,9.88
2023-03-17T09:26:08.159Z,9.83
2023-03-17T09:28:33.947Z,10.13
2023-03-17T09:31:01.641Z,10.25
2023-03-17T09:33:28.452Z,10.31
2023-03-17T09:35:56.345Z,10.40
2023-03-17T09:38:24.074Z,10.62
2023-03-17T09:41:02.905Z,10.86
2023-03-17T09:44:06.003Z,10.93
2023-03-17T09:46:47.204Z,10.90
2023-03-17T09:49:19.829Z,10.94
2023-03-17T09:51:46.592Z,11.06
2023-03-17T09:54:18.789Z,11.27
2023-03-17T09:56:50.628Z,11.32
2023-03-17T09:59:37.339Z,11.51
2023-03-17T10:02:28.852Z,11.81
2023-03-17T10:04:56.417Z,11.82
2023-03-17T10:07:35.569Z,11.77
2023-03-17T10:10:04.996Z,11.77
2023-03-17T10:12:40.454Z,11.82
2023-03-17T10:15:25.048Z,11.97
2023-03-17T10:17:52.652Z,12.32
2023-03-17T10:20:32.487Z,12.21
2023-03-17T10:23:14.366Z,12.64
2023-03-17T10:25:40.808Z,12.93
2023-03-17T10:28:11.494Z,13.13
2023-03-17T10:30:38.251Z,13.29
2023-03-17T10:33:08.757Z,12.99
2023-03-17T10:35:38.528Z,12.67
2023-03-17T10:38:20.671Z,12.90
2023-03-17T10:40:55.773Z,12.97
2023-03-17T10:43:26.995Z,13.04
2023-03-17T10:46:01.947Z,13.19
2023-03-17T10:48:30.009Z,13.61
2023-03-17T10:51:00.270Z,13.67
2023-03-17T10:53:27.433Z,14.34
2023-03-17T10:55:56.889Z,14.48
2023-03-17T10:58:54.271Z,14.58
2023-03-17T11:01:23.094Z,14.82
2023-03-17T11:03:49.070Z,14.51
2023-03-17T11:06:18.379Z,14.44
2023-03-17T11:08:54.928Z,13.96
2023-03-17T11:11:33.907Z,14.17
2023-03-17T11:14:14.729Z,14.27
2023-03-17T11:17:03.097Z,14.75
2023-03-17T11:19:38.112Z,14.75
2023-03-17T11:22:37.025Z,14.57
2023-03-17T11:25:20.257Z,14.22
2023-03-17T11:28:06.269Z,14.43
2023-03-17T11:30:37.328Z,14.99
2023-03-17T11:33:15.263Z,15.22
2023-03-17T11:35:57.909Z,15.62
2023-03-17T11:38:32.291Z,15.07
2023-03-17T11:41:10.792Z,14.56
2023-03-17T11:44:13.479Z,14.56
2023-03-17T11:46:54.620Z,14.48
2023-03-17T11:49:35.314Z,14.53
2023-03-17T11:52:27.843Z,14.32
2023-03-17T11:55:21.718Z,13.82
2023-03-17T11:58:04.875Z,13.87
2023-03-17T12:00:34.636Z,13.92
2023-03-17T12:03:03.478Z,13.53
2023-03-17T12:05:29.911Z,13.74
2023-03-17T12:08:08.238Z,13.49
2023-03-17T12:10:51.666Z,13.43
2023-03-17T12:13:28.785Z,13.14
2023-03-17T12:16:08.002Z,13.30
2023-03-17T12:18:35.807Z,13.33
2023-03-17T12:21:11.255Z,13.57
2023-03-17T12:23:39.730Z,13.49
2023-03-17T12:26:14.051Z,13.51
2023-03-17T12:28:52.517Z,13.90
2023-03-17T12:31:27.391Z,14.38
2023-03-17T12:34:19.692Z,14.24
2023-03-17T12:36:48.004Z,13.92
2023-03-17T12:39:32.270Z,14.14
2023-03-17T12:42:26.450Z,13.97
2023-03-17T12:45:21.622Z,13.58
2023-03-17T12:48:09.198Z,13.87
2023-03-17T12:51:05.927Z,13.76
2023-03-17T12:53:33.736Z,14.04
2023-03-17T12:56:18.344Z,14.10
2023-03-17T12:58:49.069Z,14.18
2023-03-17T13:01:31.669Z,14.28
2023-03-17T13:04:13.049Z,14.25
2023-03-17T13:06:47.522Z,14.58
2023-03-17T13:09:56.674Z,14.80
2023-03-17T13:12:54.217Z,14.97
2023-03-17T13:15:27.363Z,14.62
2023-03-17T13:18:11.552Z,14.05
2023-03-17T13:20:42.501Z,13.85
2023-03-17T13:23:13.739Z,13.84
2023-03-17T13:25:44.735Z,13.97
2023-03-17T13:28:13.158Z,14.17
2023-03-17T13:30:39.151Z,14.46
2023-03-17T13:33:08.775Z,14.67
2023-03-17T13:36:05.252Z,14.64
2023-03-17T13:38:42.984Z,14.90
2023-03-17T13:41:33.761Z,14.71
2023-03-17T13:44:28.728Z,14.69
2023-03-17T13:46:54.612Z,14.66
2023-03-17T13:49:26.857Z,14.51
2023-03-17T13:52:13.175Z,14.38
2023-03-17T13:54:48.950Z,14.65
2023-03-17T13:57:27.391Z,14.74
2023-03-17T14:00:08.649Z,14.97
2023-03-17T14:02:38.566Z,14.62
2023-03-17T14:05:17.569Z,14.55
2023-03-17T14:07:49.667Z,14.43
2023-03-17T14:10:18.970Z,14.67
2023-03-17T14:13:22.635Z,14.93
2023-03-17T14:16:06.180Z,14.77
2023-03-17T14:18:37.616Z,15.01
2023-03-17T14:21:08.857Z,15.05
2023-03-17T14:23:36.601Z,14.93
2023-03-17T14:26:04.402Z,15.13
2023-03-17T14:28:32.864Z,15.07
2023-03-17T14:31:01.843Z,14.83
2023-03-17T14:33:30.002Z,14.64
2023-03-17T14:36:01.195Z,14.92
2023-03-17T14:38:32.468Z,14.73
2023-03-17T14:41:05.875Z,14.65
2023-03-17T14:43:33.807Z,14.50
2023-03-17T14:46:03.197Z,14.55
2023-03-17T14:48:35.001Z,14.47
2023-03-17T14:51:22.533Z,14.31
2023-03-17T14:53:51.682Z,14.33
2023-03-17T14:56:26.643Z,14.38
2023-03-17T14:58:52.759Z,14.27
2023-03-17T15:01:38.946Z,14.25
2023-03-17T15:04:13.060Z,14.01
2023-03-17T15:06:53.952Z,13.90
2023-03-17T15:09:56.904Z,13.74
2023-03-17T15:35:44.263Z,12.87
2023-03-17T15:38:10.754Z,12.76
2023-03-17T15:40:36.906Z,12.77
2023-03-17T15:43:03.149Z,12.67
2023-03-17T15:45:28.947Z,12.63
2023-03-17T15:47:55.046Z,12.55
2023-03-17T15:50:25.358Z,12.45
2023-03-17T15:53:00.302Z,12.33
2023-03-17T15:55:29.131Z,12.37
2023-03-17T15:57:56.029Z,12.34
2023-03-17T16:00:23.698Z,12.28
2023-03-17T16:02:54.904Z,12.18
2023-03-17T16:05:23.778Z,12.14
2023-03-17T16:07:49.760Z,11.93
2023-03-17T16:10:19.043Z,11.87
2023-03-17T16:12:45.614Z,11.78
2023-03-17T16:15:23.129Z,11.74
2023-03-17T16:17:53.071Z,11.83
2023-03-17T16:20:39.551Z,11.72
2023-03-17T16:23:18.122Z,11.71
2023-03-17T16:25:45.313Z,11.80
2023-03-17T16:28:18.235Z,11.72
2023-03-17T16:30:45.961Z,11.68
2023-03-17T16:33:20.009Z,11.56
2023-03-17T16:35:49.697Z,11.51
2023-03-17T16:38:18.249Z,11.45
2023-03-17T16:40:50.351Z,11.28
2023-03-17T16:43:26.343Z,11.30
2023-03-17T16:45:57.787Z,11.19
2023-03-17T16:48:24.766Z,11.23
2023-03-17T16:50:50.900Z,11.19
2023-03-17T16:53:17.240Z,11.23
2023-03-17T16:55:43.968Z,11.24
2023-03-17T16:58:18.975Z,11.28
2023-03-17T17:00:46.543Z,11.29
2023-03-17T17:03:13.552Z,11.22
2023-03-17T17:05:40.115Z,11.13
2023-03-17T17:08:06.744Z,11.04
2023-03-17T17:10:34.077Z,11.14
2023-03-17T17:13:01.216Z,10.99
2023-03-17T17:15:28.939Z,10.98
2023-03-17T17:18:00.367Z,10.87
2023-03-17T17:20:34.489Z,10.88
2023-03-17T17:23:01.621Z,10.89
2023-03-17T17:25:28.775Z,10.80
2023-03-17T17:27:55.655Z,10.68
2023-03-17T17:30:27.432Z,10.70
2023-03-17T17:32:54.926Z,10.85
2023-03-17T17:35:20.925Z,10.74
2023-03-17T17:37:46.717Z,10.63
2023-03-17T17:40:16.708Z,10.61
2023-03-17T17:42:45.599Z,10.63
2023-03-17T17:45:13.159Z,10.59
2023-03-17T17:47:38.946Z,10.49
2023-03-17T17:50:06.264Z,10.55
2023-03-17T17:52:32.137Z,10.59
2023-03-17T17:54:59.040Z,10.56
2023-03-17T17:57:24.997Z,10.53
2023-03-17T17:59:50.847Z,10.54
2023-03-17T18:02:16.714Z,10.59
2023-03-17T18:04:42.612Z,10.51
2023-03-17T18:07:08.842Z,10.62
2023-03-17T18:09:34.917Z,10.57
2023-03-17T18:12:00.786Z,10.59
2023-03-17T18:14:27.035Z,10.54
2023-03-17T18:16:53.032Z,10.60
2023-03-17T18:19:19.200Z,10.46
2023-03-17T18:21:46.401Z,10.48
2023-03-17T18:24:14.041Z,10.50
2023-03-17T18:26:40.939Z,10.39
2023-03-17T18:29:08.528Z,10.47
2023-03-17T18:31:40.921Z,10.51
2023-03-17T18:34:42.627Z,10.40
2023-03-17T18:37:13.301Z,10.48
2023-03-17T18:39:40.225Z,10.44
2023-03-17T18:42:06.628Z,10.48
2023-03-17T18:44:32.455Z,10.53
2023-03-17T18:46:58.366Z,10.45
2023-03-17T18:49:26.437Z,10.49
2023-03-17T18:51:53.689Z,10.44
2023-03-17T18:54:19.981Z,10.43
2023-03-17T18:56:45.811Z,10.38
2023-03-17T18:59:11.638Z,10.38
2023-03-17T19:01:37.631Z,10.42
2023-03-17T19:04:04.974Z,10.49
2023-03-17T19:06:31.336Z,10.30
2023-03-17T19:08:57.341Z,10.33
2023-03-17T19:11:23.812Z,10.33
2023-03-17T19:13:50.727Z,10.23
2023-03-17T19:16:18.098Z,10.13
2023-03-17T19:18:44.840Z,10.07
2023-03-17T19:21:11.547Z,10.08
2023-03-17T19:23:38.379Z,10.07
2023-03-17T19:26:05.464Z,10.03
2023-03-17T19:28:31.726Z,9.97
2023-03-17T19:30:58.076Z,10.00
2023-03-17T19:33:23.986Z,10.03
2023-03-17T19:35:54.088Z,10.01
2023-03-17T19:38:19.958Z,10.01
2023-03-17T19:40:45.766Z,10.03
2023-03-17T19:43:11.632Z,10.00
2023-03-17T19:45:37.470Z,9.98
2023-03-17T19:48:03.580Z,10.04
2023-03-17T19:50:31.004Z,10.04
2023-03-17T19:52:56.917Z,10.05
2023-03-17T19:55:23.877Z,9.94
2023-03-17T19:57:50.882Z,9.90
2023-03-17T20:00:17.694Z,9.99
2023-03-17T20:02:44.041Z,9.90
2023-03-17T20:05:10.524Z,9.82
2023-03-17T20:07:36.659Z,9.96
2023-03-17T20:10:03.674Z,9.94
2023-03-17T20:12:31.931Z,9.91
2023-03-17T20:14:59.692Z,9.83
2023-03-17T20:17:26.060Z,9.91
2023-03-17T20:19:52.306Z,9.82
2023-03-17T20:22:19.032Z,9.82
2023-03-17T20:24:45.054Z,9.79
2023-03-17T20:27:14.514Z,9.77
2023-03-17T20:29:42.238Z,9.85
2023-03-17T20:32:14.058Z,9.79
2023-03-17T20:34:42.491Z,9.84
2023-03-17T20:37:09.751Z,9.91
2023-03-17T20:39:36.559Z,9.79
2023-03-17T20:42:07.502Z,9.74
2023-03-17T20:44:33.346Z,9.65
2023-03-17T20:46:59.228Z,9.84
2023-03-17T20:49:25.128Z,9.75
2023-03-17T20:51:51.005Z,9.84
2023-03-17T20:54:17.392Z,9.86
2023-03-17T20:56:44.812Z,9.83
2023-03-17T20:59:12.692Z,9.80
2023-03-17T21:01:39.593Z,9.80
2023-03-17T21:04:08.217Z,9.77
2023-03-17T21:06:35.615Z,9.74
2023-03-17T21:09:03.974Z,9.82
2023-03-17T21:11:30.546Z,9.88
2023-03-17T21:13:56.519Z,9.70
2023-03-17T21:16:27.367Z,9.65
2023-03-17T21:18:53.917Z,9.67
2023-03-17T21:21:21.037Z,9.64
2023-03-17T21:23:47.102Z,9.72
2023-03-17T21:26:14.077Z,9.72
2023-03-17T21:28:41.716Z,9.68
2023-03-17T21:31:08.738Z,9.72
2023-03-17T21:33:34.801Z,9.73
2023-03-17T21:36:01.174Z,9.67
2023-03-17T21:38:27.722Z,9.66
2023-03-17T21:40:57.254Z,9.62
2023-03-17T21:43:23.894Z,9.57
2023-03-17T21:45:50.800Z,9.72
2023-03-17T21:48:16.902Z,9.66
2023-03-17T21:50:43.577Z,9.73
2023-03-17T21:53:13.244Z,9.77
2023-03-17T21:55:39.394Z,9.65
2023-03-17T21:58:05.229Z,9.70
2023-03-17T22:00:42.724Z,9.55
2023-03-17T22:03:10.891Z,9.62
2023-03-17T22:05:36.783Z,9.61
2023-03-17T22:08:02.572Z,9.61
2023-03-17T22:10:28.341Z,9.56
2023-03-17T22:12:54.140Z,9.37
2023-03-17T22:15:20.599Z,9.31
2023-03-17T22:17:46.421Z,9.34
2023-03-17T22:20:12.465Z,9.30
2023-03-17T22:22:38.333Z,9.28
2023-03-17T22:25:05.547Z,9.22
2023-03-17T22:27:32.837Z,9.20
2023-03-17T22:29:58.683Z,9.18
2023-03-17T22:32:24.762Z,9.16
2023-03-17T22:34:50.587Z,9.14
2023-03-17T22:37:16.624Z,9.10
2023-03-17T22:39:42.505Z,9.06
2023-03-17T22:42:08.429Z,9.04
2023-03-17T22:44:34.303Z,8.94
2023-03-17T22:47:00.212Z,8.89
2023-03-17T22:49:26.189Z,8.86
2023-03-17T22:51:52.123Z,8.89
2023-03-17T22:54:18.029Z,8.87
2023-03-17T22:56:44.217Z,8.93
2023-03-17T22:59:10.699Z,8.92
2023-03-17T23:01:36.621Z,8.83
2023-03-17T23:04:02.515Z,8.84
2023-03-17T23:06:28.398Z,8.71
2023-03-17T23:08:54.308Z,8.69
2023-03-17T23:11:23.553Z,8.81
2023-03-17T23:13:50.663Z,8.68
2023-03-17T23:16:16.812Z,8.57
2023-03-17T23:18:46.526Z,8.67
2023-03-17T23:21:21.970Z,8.63
2023-03-17T23:23:48.685Z,8.43
2023-03-17T23:26:15.462Z,8.52
2023-03-17T23:28:43.583Z,8.53
2023-03-17T23:31:10.277Z,8.45
2023-03-17T23:33:38.414Z,8.35
2023-03-17T23:36:04.628Z,8.35
2023-03-17T23:38:30.500Z,8.34
2023-03-17T23:40:56.724Z,8.36
2023-03-17T23:43:22.956Z,8.27
2023-03-17T23:45:54.433Z,8.24
2023-03-17T23:48:21.408Z,8.32
2023-03-17T23:50:52.086Z,8.38
2023-03-17T23:53:18.865Z,8.42
2023-03-17T23:55:45.030Z,8.43
2023-03-17T23:58:11.659Z,8.37
